• Join FlightAware (Why Join?)
  • Login
  • US Flag 
09:44PM EDT


 

Airport Tracker/Info


-or-


 

Live Flight TrackerFlight Track Log ✈ UAL395 ✈ 17-Aug-2013 ✈ KIAH - KMIA

Flight Track Log - Related Links

Times and Time Zones

All times are in EDT time to prevent confusion due to time zone crossing. See the UAL395 flight status page for this flight to view local times or setup timezone preferences in your user account.

Time Position Orientation Groundspeed Altitude Reporting Facility
EDT Latitude Longitude Course Direction KTS MPH feet Rate Location/Type
10:07PM 29.9639 -95.3433 98° East 175 201 700  Level Houston Center
10:08PM 29.9331 -95.3061 134° Southeast 197 227 2,100 1,980 Climbing Houston Center
10:09PM 29.9223 -94.9233 97° East  Level FlightAware Approximate
10:09PM 29.9000 -95.2614 130° Southeast 212 244 4,300  Level Houston Center
10:10PM 29.9099 -94.7852 95° East  Level FlightAware Approximate
10:10PM 29.8833 -95.1531 100° East 293 337 8,600  Level Houston Center
10:11PM 29.8977 -94.6472 98° East  Level FlightAware Approximate
10:11PM 29.8806 -95.0569 92° East 299 344 11,700  Level Houston Center
10:12PM 29.8816 -94.5097 98° East  Level FlightAware Approximate
10:12PM 29.8800 -94.9744 90° East 351 404 13,000  Level Houston Center
10:13PM 29.8764 -94.8458 92° East 395 455 15,800 2,580 Climbing Houston Center
10:14PM 29.8739 -94.7053 91° East 431 496 18,300 3,000 Climbing Houston Center
10:15PM 29.8689 -94.5600 92° East 450 518 21,900 2,940 Climbing Houston Center
10:16PM 29.8653 -94.4197 92° East 442 509 24,300 2,220 Climbing Houston Center
10:17PM 29.8617 -94.2708 92° East 466 536 26,400 2,040 Climbing Houston Center
10:18PM 29.8564 -94.1244 92° East 461 531 28,500 1,560 Climbing Houston Center
10:19PM 29.8589 -93.9847 89° East 446 513 29,600 1,020 Climbing Houston Center
10:20PM 29.8756 -93.8389 82° East 455 524 30,600 1,080 Climbing Houston Center
10:21PM 29.8911 -93.6892 83° East 470 541 31,800 960 Climbing Houston Center
10:22PM 29.9064 -93.5417 83° East 468 539 32,600 1,020 Climbing Houston Center
10:23PM 29.9239 -93.3589 84° East 482 555 33,900 1,260 Climbing Houston Center
10:24PM 29.9400 -93.2078 83° East 480 552 35,200 900 Climbing Houston Center
10:25PM 29.9547 -93.0586 83° East 474 545 35,800 660 Climbing Houston Center
10:26PM 29.9700 -92.9069 83° East 477 549 36,600 840 Climbing Houston Center
10:27PM 29.9717 -92.7569 89° East 472 543 37,600 660 Climbing Houston Center
10:28PM 29.9750 -92.6069 88° East 471 542 38,000 540 Climbing Houston Center
10:29PM 29.9775 -92.4572 89° East 470 541 38,700 480 Climbing Houston Center
10:30PM 29.9797 -92.3078 89° East 468 539 39,000 60 Climbing Houston Center
10:31PM 29.9806 -92.1556 90° East 474 545 38,900 -60 Descending Houston Center
10:32PM 29.9842 -92.0006 88° East 483 556 38,900  Level Houston Center
10:33PM 29.9847 -91.8450 90° East 486 559 38,900  Level Houston Center
10:34PM 29.9869 -91.6856 89° East 484 557 38,900  Level Houston Center
10:35PM 29.9883 -91.5303 89° East 484 557 38,900  Level Houston Center
10:36PM 29.9889 -91.3758 90° East 484 557 38,900  Level Houston Center
10:37PM 29.9908 -91.2203 89° East 486 559 39,000  Climbing Houston Center
10:38PM 29.9911 -91.0639 90° East 487 560 39,000  Level Houston Center
10:39PM 29.9911 -90.8797 90° East 482 555 39,000 -60 Level Houston Center
10:40PM 29.9917 -90.7269 90° East 479 551 38,900 -60 Descending Houston Center
10:41PM 29.9911 -90.5717 90° East 483 556 38,900  Level Houston Center
10:42PM 29.9917 -90.4178 90° East 484 557 39,000  Climbing Houston Center
10:43PM 29.9911 -90.2644 90° East 483 556 39,000  Level Houston Center
10:44PM 29.9900 -90.1117 90° East 479 551 39,000 -60 Level Houston Center
10:45PM 29.9892 -89.9622 90° East 472 543 38,900 -60 Descending Houston Center
10:46PM 29.9881 -89.8119 90° East 474 545 38,900  Level Houston Center
10:47PM 29.9872 -89.6611 90° East 477 549 38,900  Level Houston Center
10:48PM 29.9864 -89.5092 90° East 479 551 38,900  Level Houston Center
10:49PM 29.9847 -89.3575 91° East 477 549 38,900  Level Houston Center
10:50PM 29.9831 -89.1700 91° East 493 567 39,000  Climbing Houston Center
10:51PM 29.9819 -89.0169 90° East 484 557 39,000 -60 Level Houston Center
10:52PM 29.9789 -88.8669 91° East 474 545 38,900 -60 Descending Houston Center
10:53PM 29.9775 -88.7197 91° East 464 534 38,900  Level Houston Center
10:54PM 29.9744 -88.5733 91° East 463 533 39,000  Climbing Houston Center
10:55PM 29.9728 -88.4278 91° East 459 528 39,000 -60 Level Houston Center
10:56PM 29.9694 -88.2831 91° East 456 525 38,900 -60 Descending Houston Center
10:57PM 29.9681 -88.1389 91° East 453 521 38,900  Level Houston Center
10:58PM 29.9647 -87.9914 91° East 462 532 39,000  Climbing Houston Center
10:59PM 29.9631 -87.8431 91° East 465 535 39,000  Level Houston Center
11:00PM 29.9600 -87.6939 91° East 468 539 39,000  Level Houston Center
11:01PM 29.9558 -87.5447 92° East 468 539 39,000  Level Houston Center
11:02PM 29.9522 -87.3706 91° East 473 544 39,000  Level Houston Center
11:03PM 29.9494 -87.2186 91° East 474 545 39,000 -60 Level Houston Center
11:04PM 29.9456 -87.0700 92° East 469 540 38,900 -60 Descending Houston Center
11:05PM 29.9394 -86.9214 93° East 465 535 38,900  Level Houston Center
11:06PM 29.9369 -86.7731 91° East 464 534 38,900  Level Houston Center
11:07PM 29.9097 -86.6039 100° East 454 522 38,900  Level Jacksonville Center
11:08PM 29.8700 -86.4661 108° East 449 517 38,900  Level Jacksonville Center
11:09PM 29.8300 -86.3281 108° East 449 517 38,900  Level Jacksonville Center
11:10PM 29.7917 -86.1950 108° East 449 517 39,000  Climbing Jacksonville Center
11:11PM 29.7553 -86.0622 107° East 449 517 38,900 -60 Descending Jacksonville Center
11:12PM 29.7147 -85.9247 109° East 449 517 38,900  Level Jacksonville Center
11:13PM 29.6761 -85.7919 108° East 449 517 38,900  Level Jacksonville Center
11:14PM 29.6375 -85.6572 108° East 449 517 38,900  Level Jacksonville Center
11:15PM 29.5986 -85.5200 108° East 449 517 39,000  Climbing Jacksonville Center
11:16PM 29.5556 -85.3683 108° East 455 524 39,000  Level Jacksonville Center
11:17PM 29.5164 -85.2361 109° East 445 512 39,000  Level Jacksonville Center
11:18PM 29.4772 -85.0992 108° East 445 512 39,000 -60 Level Jacksonville Center
11:19PM 29.4356 -84.9647 110° East 450 518 38,900 -60 Descending Jacksonville Center
11:20PM 29.3981 -84.8281 107° East 450 518 38,900  Level Jacksonville Center
11:21PM 29.3561 -84.6939 110° East 450 518 38,900  Level Jacksonville Center
11:22PM 29.2953 -84.5689 119° Southeast 450 518 38,900 60 Level Jacksonville Center
11:23PM 29.2342 -84.4489 120° Southeast 445 512 39,100  Climbing Jacksonville Center
11:24PM 29.1708 -84.3242 120° Southeast 445 512 39,000 -60 Descending Jacksonville Center
11:25PM 29.1011 -84.2117 125° Southeast 445 512 39,000  Level Jacksonville Center
11:26PM 29.0269 -84.1014 128° Southeast 445 512 39,000  Level Jacksonville Center
11:27PM 28.9550 -83.9936 127° Southeast 440 506 39,000 -60 Level Jacksonville Center
11:28PM 28.8744 -83.8908 132° Southeast 435 501 38,900 -60 Descending Jacksonville Center
11:29PM 28.7747 -83.8139 146° Southeast 429 494 38,900  Level Jacksonville Center
11:32PM 28.5433 -83.6700 151° Southeast 426 490 39,000  Climbing Miami Center
11:33PM 28.4283 -83.6344 165° South 436 502 39,000  Level Miami Center
11:34PM 28.3239 -83.5506 145° Southeast 442 509 39,100 -60 Climbing Miami Center
11:35PM 28.2256 -83.4694 144° Southeast 437 503 38,900 -120 Descending Miami Center
11:36PM 28.1314 -83.3861 142° Southeast 437 503 38,900  Level Miami Center
11:37PM 28.0347 -83.3078 144° Southeast 437 503 38,900  Level Miami Center
11:38PM 27.9361 -83.2269 144° Southeast 437 503 38,900  Level Miami Center
11:39PM 27.8333 -83.1461 145° Southeast 442 509 39,000  Climbing Miami Center
11:40PM 27.7369 -83.0611 142° Southeast 442 509 39,000 -300 Level Miami Center
11:41PM 27.6381 -82.9833 145° Southeast 442 509 38,400 -780 Descending Miami Center
11:42PM 27.5394 -82.9006 143° Southeast 442 509 37,500 -960 Descending Miami Center
11:43PM 27.4286 -82.8083 144° Southeast 447 514 36,500 -960 Descending Miami Center
11:44PM 27.3297 -82.7261 144° Southeast 459 528 35,600 -960 Descending Miami Center
11:45PM 27.2344 -82.6514 145° Southeast 455 524 34,600 -1,020 Descending Miami Center
11:46PM 27.1336 -82.5692 144° Southeast 455 524 33,600 -960 Descending Miami Center
11:47PM 27.0283 -82.4825 144° Southeast 455 524 32,700 -1,020 Descending Miami Center
11:48PM 26.9292 -82.4008 144° Southeast 463 533 31,700 -1,320 Descending Miami Center
11:49PM 26.8478 -82.2925 130° Southeast 458 527 30,200 -1,680 Descending Miami Center
11:50PM 26.7703 -82.1842 129° Southeast 445 512 28,300 -1,980 Descending Miami Center
11:51PM 26.6950 -82.0739 127° Southeast 445 512 26,300 -1,980 Descending Miami Center
11:52PM 26.6194 -81.9731 130° Southeast 440 506 24,500 -1,800 Descending Miami Center
11:53PM 26.5478 -81.8700 128° Southeast 433 498 22,700 -1,860 Descending Miami Center
11:54PM 26.4722 -81.7600 127° Southeast 416 479 20,800 -1,800 Descending Miami Center
11:55PM 26.4022 -81.6644 129° Southeast 409 471 19,100 -1,680 Descending Miami Center
11:56PM 26.3344 -81.5714 129° Southeast 404 465 17,600 -1,620 Descending Miami Center
11:57PM 26.2664 -81.4783 129° Southeast 393 452 16,000 -1,620 Descending Miami Center
11:58PM 26.2022 -81.3903 129° Southeast 377 434 14,500 -1,500 Descending Miami Center
11:59PM 26.1381 -81.3022 129° Southeast 372 428 13,000 -1,440 Descending Miami Center
12:00AM 26.0739 -81.2142 129° Southeast 367 422 11,600 -1,260 Descending Miami Center
12:01AM 26.0236 -81.1547 133° Southeast 360 414 10,800 -900 Descending Miami Center
12:02AM 25.9492 -81.0528 129° Southeast 345 397 9,900 -480 Descending Miami Center
12:03AM 25.9008 -80.9886 130° Southeast 284 327 9,900  Level Miami Center
12:04AM 25.8678 -80.9089 115° Southeast 285 328 9,900 -660 Level Miami Center
12:05AM 25.8492 -80.8231 104° East 282 325 8,600 -1,380 Descending Miami Center
12:06AM 25.8328 -80.7278 101° East 277 319 7,000 -1,560 Descending Miami Center
12:07AM 25.8161 -80.6464 103° East 277 319 5,500 -1,380 Descending Miami Center
12:08AM 25.7994 -80.5697 104° East 266 306 4,300 -1,200 Descending Miami Center
12:09AM 25.7803 -80.4978 106° East 254 292 3,200 -1,200 Descending Miami Center
12:10AM 25.7775 -80.4353 93° East 212 244 2,000 -1,020 Descending Miami Center
12:11AM 25.7789 -80.3825 88° East 147 169 1,100 -720 Descending Miami Center
12:12AM 25.7819 -80.3433 85° East 115 132 500 -600 Descending Miami Center